createdAt,value
2022-09-07T01:01:40.722Z,4.82
2022-09-07T01:10:14.790Z,5.30
2022-09-07T01:12:42.685Z,6.47
2022-09-07T01:15:11.834Z,7.05
2022-09-07T01:18:02.447Z,6.57
2022-09-07T01:20:49.677Z,6.97
2022-09-07T01:23:57.128Z,7.45
2022-09-07T01:27:01.305Z,6.63
2022-09-07T01:29:36.376Z,7.95
2022-09-07T01:32:13.765Z,7.32
2022-09-07T01:34:50.959Z,7.32
2022-09-07T01:37:26.267Z,6.63
2022-09-07T01:40:02.092Z,6.78
2022-09-07T01:42:34.870Z,6.90
2022-09-07T01:45:13.561Z,6.50
2022-09-07T01:47:45.936Z,7.15
2022-09-07T01:50:21.200Z,7.57
2022-09-07T01:52:53.954Z,6.97
2022-09-07T01:55:30.223Z,6.53
2022-09-07T01:58:04.421Z,7.28
2022-09-07T02:00:39.966Z,6.80
2022-09-07T02:03:14.199Z,6.63
2022-09-07T02:05:47.449Z,7.25
2022-09-07T02:08:19.599Z,6.45
2022-09-07T02:10:53.233Z,7.00
2022-09-07T02:13:24.716Z,7.82
2022-09-07T02:16:01.388Z,7.45
2022-09-07T02:18:37.351Z,7.40
2022-09-07T02:21:09.990Z,8.80
2022-09-07T02:23:42.599Z,8.63
2022-09-07T02:26:17.093Z,10.00
2022-09-07T02:28:45.395Z,9.43
2022-09-07T02:31:15.224Z,9.82
2022-09-07T02:33:43.959Z,8.63
2022-09-07T02:36:15.024Z,9.10
2022-09-07T02:38:42.928Z,10.35
2022-09-07T02:41:33.637Z,9.75
2022-09-07T02:44:04.796Z,9.75
2022-09-07T02:46:48.827Z,9.13
2022-09-07T02:49:31.058Z,8.65
2022-09-07T02:52:09.359Z,8.65
2022-09-07T02:54:52.505Z,7.82
2022-09-07T02:57:33.230Z,9.18
2022-09-07T03:00:10.529Z,7.30
2022-09-07T03:02:51.262Z,8.27
2022-09-07T03:05:23.905Z,7.35
2022-09-07T03:07:57.950Z,7.05
2022-09-07T03:10:26.150Z,8.07
2022-09-07T03:12:54.344Z,8.57
2022-09-07T03:15:25.339Z,8.45
2022-09-07T03:17:54.868Z,8.23
2022-09-07T03:20:24.277Z,8.80
2022-09-07T03:22:53.209Z,7.38
2022-09-07T03:25:22.944Z,7.45
2022-09-07T03:27:51.029Z,8.25
2022-09-07T03:30:19.023Z,8.70
2022-09-07T03:32:47.745Z,8.15
2022-09-07T03:35:17.770Z,8.68
2022-09-07T03:37:46.078Z,10.50
2022-09-07T03:40:16.418Z,8.98
2022-09-07T03:42:44.858Z,8.27
2022-09-07T03:45:13.417Z,8.50
2022-09-07T03:47:41.454Z,9.70
2022-09-07T03:50:11.203Z,9.70
2022-09-07T03:52:40.694Z,9.43
2022-09-07T03:55:10.386Z,9.70
2022-09-07T03:57:40.319Z,9.75
2022-09-07T04:00:09.354Z,9.07
2022-09-07T04:02:43.721Z,9.55
2022-09-07T04:05:12.015Z,8.50
2022-09-07T04:07:43.249Z,9.63
2022-09-07T04:10:19.494Z,9.38
2022-09-07T04:12:47.343Z,10.23
2022-09-07T04:15:16.408Z,9.55
2022-09-07T04:17:46.521Z,10.55
2022-09-07T04:20:15.030Z,10.07
2022-09-07T04:22:44.957Z,9.57
2022-09-07T04:25:13.433Z,8.88
2022-09-07T04:27:41.699Z,9.02
2022-09-07T04:30:11.079Z,8.70
2022-09-07T04:32:39.399Z,9.00
2022-09-07T04:35:09.357Z,9.63
2022-09-07T04:37:37.829Z,9.48
2022-09-07T04:40:08.022Z,11.25
2022-09-07T04:42:36.641Z,10.07
2022-09-07T04:45:05.291Z,10.18
2022-09-07T04:47:33.405Z,9.70
2022-09-07T04:50:01.525Z,9.30
2022-09-07T04:52:29.609Z,9.43
2022-09-07T04:54:58.019Z,9.70
2022-09-07T05:01:29.667Z,10.43
2022-09-07T05:07:48.190Z,10.60
2022-09-07T05:10:16.159Z,12.20
2022-09-07T05:12:44.367Z,10.77
2022-09-07T05:15:12.489Z,13.05
2022-09-07T05:17:42.133Z,13.77
2022-09-07T05:20:10.738Z,15.68
2022-09-07T05:22:41.195Z,14.75
2022-09-07T05:25:10.039Z,14.80
2022-09-07T05:27:38.873Z,15.65
2022-09-07T05:30:08.213Z,15.77
2022-09-07T05:32:36.183Z,12.32
2022-09-07T05:35:06.140Z,12.90
2022-09-07T05:37:36.737Z,12.75
2022-09-07T05:40:06.141Z,13.70
2022-09-07T05:42:36.316Z,12.85
2022-09-07T05:45:04.838Z,14.30
2022-09-07T05:47:33.487Z,13.23
2022-09-07T05:50:02.896Z,12.27
2022-09-07T05:52:32.413Z,8.68
2022-09-07T05:55:19.341Z,9.27
2022-09-07T05:57:48.709Z,7.80
2022-09-07T06:00:16.819Z,8.07
2022-09-07T06:02:45.067Z,7.18
2022-09-07T06:05:13.192Z,6.43
2022-09-07T06:07:42.637Z,7.07
2022-09-07T06:12:58.936Z,6.90
2022-09-07T06:15:27.323Z,6.45
2022-09-07T06:17:55.224Z,7.35
2022-09-07T06:20:23.399Z,7.68
2022-09-07T06:22:53.099Z,8.55
2022-09-07T06:25:20.933Z,7.80
2022-09-07T06:27:50.477Z,6.82
2022-09-07T06:30:19.079Z,6.75
2022-09-07T06:32:49.623Z,7.32
2022-09-07T06:35:17.813Z,7.25
2022-09-07T06:37:47.313Z,6.80
2022-09-07T06:40:17.362Z,6.57
2022-09-07T06:42:45.343Z,7.65
2022-09-07T06:45:16.844Z,7.80
2022-09-07T06:47:44.786Z,6.90
2022-09-07T06:50:13.058Z,7.32
2022-09-07T06:55:31.564Z,8.02
2022-09-07T06:57:59.880Z,7.53
2022-09-07T07:00:27.716Z,8.18
2022-09-07T07:02:56.073Z,8.05
2022-09-07T07:05:23.823Z,8.13
2022-09-07T07:07:52.089Z,8.57
2022-09-07T07:10:24.515Z,8.43
2022-09-07T07:12:58.298Z,8.30
2022-09-07T07:15:28.929Z,7.65
2022-09-07T07:18:05.188Z,7.25
2022-09-07T07:20:37.666Z,7.57
2022-09-07T07:23:06.412Z,8.02
2022-09-07T07:25:35.389Z,8.10
2022-09-07T07:30:56.811Z,8.60
2022-09-07T07:33:25.610Z,8.10
2022-09-07T07:35:53.649Z,8.60
2022-09-07T07:44:06.745Z,9.23
2022-09-07T07:46:34.790Z,8.32
2022-09-07T07:49:02.938Z,7.68
2022-09-07T07:51:31.770Z,7.57
2022-09-07T07:54:19.375Z,7.00
2022-09-07T07:56:47.100Z,7.70
2022-09-07T07:59:16.372Z,7.68
2022-09-07T08:01:44.881Z,7.55
2022-09-07T08:04:14.998Z,7.28
2022-09-07T08:06:44.524Z,6.82
2022-09-07T08:09:13.220Z,6.22
2022-09-07T08:11:42.344Z,6.25
2022-09-07T08:14:10.227Z,6.20
2022-09-07T08:16:39.475Z,6.03
2022-09-07T08:19:07.623Z,5.70
2022-09-07T08:21:35.634Z,5.05
2022-09-07T08:24:04.893Z,5.45
2022-09-07T08:26:33.478Z,5.57
2022-09-07T08:29:01.674Z,4.40
2022-09-07T08:31:30.109Z,4.38
2022-09-07T08:34:00.772Z,3.83
2022-09-07T08:36:31.788Z,3.25
2022-09-07T08:39:00.058Z,3.25
2022-09-07T08:41:49.734Z,3.20
2022-09-07T08:44:24.108Z,4.13
2022-09-07T08:46:57.803Z,3.35
2022-09-07T08:49:36.543Z,3.63
2022-09-07T08:52:10.637Z,3.60
2022-09-07T08:54:41.042Z,3.33
2022-09-07T08:57:25.244Z,3.00
2022-09-07T08:59:59.033Z,2.70
2022-09-07T09:02:28.193Z,2.60
2022-09-07T09:07:55.194Z,2.60
2022-09-07T09:10:30.335Z,2.38
2022-09-07T09:13:06.004Z,2.88
2022-09-07T09:15:59.679Z,2.00
2022-09-07T09:18:43.057Z,2.17
2022-09-07T09:21:16.043Z,2.63
2022-09-07T09:23:47.578Z,2.80
2022-09-07T09:26:21.289Z,2.25
2022-09-07T09:28:50.410Z,2.00
2022-09-07T09:31:20.685Z,2.35
2022-09-07T09:34:10.553Z,2.00
2022-09-07T09:36:46.221Z,2.55
2022-09-07T09:39:34.798Z,2.63
2022-09-07T09:42:16.361Z,2.20
2022-09-07T09:44:45.683Z,2.25
2022-09-07T09:47:31.223Z,2.10
2022-09-07T09:50:02.453Z,1.95
2022-09-07T09:52:45.169Z,2.05
2022-09-07T09:55:35.783Z,2.10
2022-09-07T10:03:59.598Z,1.93
2022-09-07T10:06:29.399Z,1.77
2022-09-07T10:09:06.183Z,1.75
2022-09-07T10:14:34.180Z,1.70
2022-09-07T10:17:11.104Z,1.60
2022-09-07T10:19:41.114Z,1.95
2022-09-07T10:22:23.695Z,1.80
2022-09-07T10:24:53.207Z,1.83
2022-09-07T10:27:29.273Z,1.95
2022-09-07T10:29:57.348Z,2.55
2022-09-07T10:32:38.188Z,2.30
2022-09-07T10:35:14.682Z,2.35
2022-09-07T10:37:52.605Z,2.30
2022-09-07T10:40:30.326Z,2.50
2022-09-07T10:43:24.776Z,2.08
2022-09-07T10:46:11.901Z,2.13
2022-09-07T10:48:48.310Z,2.58
2022-09-07T10:51:19.130Z,2.00
2022-09-07T10:56:53.476Z,2.75
2022-09-07T11:02:36.336Z,2.10
2022-09-07T11:05:19.203Z,2.05
2022-09-07T11:08:02.438Z,1.92
2022-09-07T11:13:09.424Z,2.35
2022-09-07T11:15:44.139Z,2.30
2022-09-07T11:18:19.126Z,1.73
2022-09-07T11:20:55.187Z,1.80
2022-09-07T11:26:32.563Z,2.07
2022-09-07T11:32:03.625Z,2.08
2022-09-07T11:34:38.051Z,2.03
2022-09-07T11:37:10.862Z,1.90
2022-09-07T11:39:46.186Z,1.92
2022-09-07T11:45:17.251Z,2.00
2022-09-07T11:47:50.459Z,1.90
2022-09-07T11:50:20.195Z,2.42
2022-09-07T11:52:55.021Z,2.05
2022-09-07T11:55:27.489Z,1.90
2022-09-07T11:58:20.747Z,2.05
2022-09-07T12:01:03.807Z,2.00
2022-09-07T12:03:51.960Z,1.83
2022-09-07T12:06:44.915Z,2.03
2022-09-07T12:09:27.885Z,2.00
2022-09-07T12:12:21.866Z,2.17
2022-09-07T12:15:03.814Z,2.13
2022-09-07T12:17:59.918Z,2.25
2022-09-07T12:20:39.278Z,1.90
2022-09-07T12:23:20.998Z,1.85
2022-09-07T12:25:51.237Z,1.92
2022-09-07T12:28:57.847Z,1.90
2022-09-07T12:31:57.401Z,1.75
2022-09-07T12:34:53.667Z,1.80
2022-09-07T12:37:40.772Z,1.98
2022-09-07T12:40:58.006Z,1.92
2022-09-07T12:43:46.513Z,1.80
2022-09-07T12:46:49.987Z,1.90
2022-09-07T12:52:02.056Z,1.58
2022-09-07T12:54:43.092Z,1.70
2022-09-07T12:57:29.935Z,1.75
2022-09-07T13:09:34.132Z,1.50
2022-09-07T13:12:07.202Z,1.67
2022-09-07T13:14:39.777Z,1.33
2022-09-07T13:17:44.373Z,1.50
2022-09-07T13:20:34.785Z,1.95
2022-09-07T13:23:25.817Z,2.05
2022-09-07T13:25:58.980Z,1.60
2022-09-07T13:28:32.769Z,1.55
2022-09-07T13:31:08.850Z,1.88
2022-09-07T13:33:50.825Z,1.70
2022-09-07T13:36:26.631Z,2.10
2022-09-07T13:38:56.190Z,1.77
2022-09-07T13:41:30.746Z,1.48
2022-09-07T13:44:02.870Z,1.40
2022-09-07T13:46:44.340Z,1.35
2022-09-07T13:49:22.900Z,1.70
2022-09-07T13:51:58.406Z,1.30
2022-09-07T13:54:37.813Z,1.65
2022-09-07T14:26:27.653Z,1.20
2022-09-07T14:38:13.068Z,1.42
2022-09-07T14:40:41.283Z,1.42
2022-09-07T14:43:33.665Z,1.38
2022-09-07T14:46:18.385Z,1.20
2022-09-07T14:48:49.189Z,1.15
2022-09-07T14:51:34.758Z,1.17
2022-09-07T14:54:06.649Z,1.38
2022-09-07T14:56:36.898Z,1.35
2022-09-07T14:59:29.558Z,1.20
2022-09-07T15:02:33.729Z,0.97
2022-09-07T15:05:31.824Z,1.58
2022-09-07T15:08:01.573Z,1.27
2022-09-07T15:10:35.338Z,1.00
2022-09-07T15:13:05.726Z,1.55
2022-09-07T15:15:37.548Z,1.25
2022-09-07T15:18:27.918Z,1.00
2022-09-07T15:20:56.501Z,1.33
2022-09-07T15:23:24.502Z,1.40
2022-09-07T15:25:54.170Z,1.40
2022-09-07T15:34:10.260Z,0.80
2022-09-07T15:36:40.826Z,0.80
2022-09-07T15:39:17.499Z,0.70
2022-09-07T15:41:46.304Z,0.70
2022-09-07T15:44:15.105Z,1.08
2022-09-07T15:47:42.458Z,1.25
2022-09-07T15:49:34.991Z,0.80
2022-09-07T15:52:05.255Z,0.82
2022-09-07T15:54:35.324Z,1.08
2022-09-07T15:59:53.524Z,0.82
2022-09-07T16:11:05.300Z,1.40
2022-09-07T16:13:34.587Z,1.05
2022-09-07T16:16:05.854Z,1.02
2022-09-07T16:18:36.255Z,1.02
2022-09-07T16:21:11.933Z,1.02
2022-09-07T16:23:42.294Z,1.02
2022-09-07T16:26:11.578Z,1.15
2022-09-07T16:28:41.096Z,1.00
2022-09-07T16:31:14.008Z,1.10
2022-09-07T16:36:14.430Z,0.90
2022-09-07T16:38:44.660Z,1.40
2022-09-07T16:41:14.601Z,1.17
2022-09-07T16:43:42.559Z,1.20
2022-09-07T16:46:14.065Z,1.33
2022-09-07T16:48:44.399Z,1.17
2022-09-07T16:51:14.633Z,1.50
2022-09-07T16:53:43.046Z,1.77
2022-09-07T16:56:16.854Z,1.75
2022-09-07T16:58:50.052Z,1.30
2022-09-07T17:01:21.560Z,1.40
2022-09-07T17:03:52.050Z,1.10
2022-09-07T17:06:21.811Z,1.30
2022-09-07T17:08:49.890Z,1.20
2022-09-07T17:11:20.292Z,1.67
2022-09-07T17:13:48.924Z,1.52
2022-09-07T17:16:19.820Z,1.05
2022-09-07T17:21:42.532Z,2.53
2022-09-07T17:24:14.746Z,1.70
2022-09-07T17:26:43.177Z,1.60
2022-09-07T17:29:13.127Z,2.03
2022-09-07T17:34:31.250Z,1.60
2022-09-07T17:37:00.611Z,1.50
2022-09-07T17:39:29.166Z,1.40
2022-09-07T17:41:57.806Z,1.30
2022-09-07T17:44:26.330Z,1.10
2022-09-07T17:46:54.468Z,1.48
2022-09-07T17:49:22.918Z,1.40
2022-09-07T17:51:52.294Z,1.00
2022-09-07T17:54:20.359Z,1.30
2022-09-07T17:56:48.232Z,1.33
2022-09-07T18:02:04.521Z,1.60
2022-09-07T18:04:35.759Z,1.77
2022-09-07T18:07:05.172Z,1.27
2022-09-07T18:09:33.066Z,1.38
2022-09-07T18:12:02.027Z,0.90
2022-09-07T18:14:31.188Z,1.20
2022-09-07T18:16:59.307Z,1.85
2022-09-07T18:19:27.498Z,1.48
2022-09-07T18:21:55.698Z,1.40
2022-09-07T18:24:25.632Z,1.77
2022-09-07T18:26:54.591Z,1.25
2022-09-07T18:29:31.380Z,1.80
2022-09-07T18:32:02.161Z,1.50
2022-09-07T18:34:32.536Z,1.13
2022-09-07T18:37:00.792Z,1.25
2022-09-07T18:39:31.469Z,1.42
2022-09-07T18:41:59.625Z,1.38
2022-09-07T18:47:22.214Z,1.38
2022-09-07T18:49:52.689Z,1.50
2022-09-07T18:55:12.882Z,2.97
2022-09-07T18:57:41.270Z,1.67
2022-09-07T19:00:11.741Z,4.10
2022-09-07T19:02:40.415Z,1.67
2022-09-07T19:07:56.820Z,1.77
2022-09-07T19:10:26.765Z,2.28
2022-09-07T19:12:54.840Z,2.05
2022-09-07T19:15:23.753Z,2.65
2022-09-07T19:17:52.172Z,1.83
2022-09-07T19:20:20.290Z,3.00
2022-09-07T19:22:49.139Z,2.40
2022-09-07T19:25:19.498Z,1.98
2022-09-07T19:27:48.932Z,2.35
2022-09-07T19:30:17.529Z,3.13
2022-09-07T19:32:45.666Z,3.10
2022-09-07T19:41:05.225Z,2.30
2022-09-07T19:43:36.887Z,2.63
2022-09-07T19:46:05.330Z,2.20
2022-09-07T19:48:34.135Z,1.92
2022-09-07T19:51:02.981Z,2.25
2022-09-07T19:53:33.886Z,1.70
2022-09-07T19:56:06.944Z,1.90
2022-09-07T19:58:41.052Z,2.00
2022-09-07T20:01:11.411Z,1.80
2022-09-07T20:03:39.613Z,1.90
2022-09-07T20:06:08.788Z,1.90
2022-09-07T20:08:37.078Z,2.15
2022-09-07T20:11:08.370Z,2.17
2022-09-07T20:13:37.991Z,2.17
2022-09-07T20:16:09.210Z,2.17
2022-09-07T20:18:37.942Z,2.38
2022-09-07T20:21:07.122Z,2.28
2022-09-07T20:23:36.374Z,2.63
2022-09-07T20:26:08.195Z,2.65
2022-09-07T20:28:38.589Z,4.55
2022-09-07T20:31:08.543Z,3.72
2022-09-07T20:33:38.168Z,2.30
2022-09-07T20:36:09.822Z,2.28
2022-09-07T20:38:43.342Z,2.40
2022-09-07T20:41:16.612Z,2.47
2022-09-07T20:46:18.576Z,2.58
2022-09-07T20:48:50.205Z,2.50
2022-09-07T20:51:21.216Z,2.95
2022-09-07T20:53:53.995Z,3.55
2022-09-07T20:56:24.054Z,2.28
2022-09-07T21:01:29.686Z,2.58
2022-09-07T21:04:01.804Z,2.53
2022-09-07T21:06:32.276Z,2.65
2022-09-07T21:09:00.930Z,3.00
2022-09-07T21:11:31.654Z,2.40
2022-09-07T21:14:02.995Z,2.50
2022-09-07T21:16:31.890Z,2.83
2022-09-07T21:19:04.305Z,2.83
2022-09-07T21:21:38.843Z,3.17
2022-09-07T21:24:08.611Z,2.70
2022-09-07T21:26:37.701Z,2.90
2022-09-07T21:29:17.189Z,2.63
2022-09-07T21:31:45.753Z,2.45
2022-09-07T21:34:13.828Z,2.55
2022-09-07T21:36:42.543Z,2.97
2022-09-07T21:39:14.673Z,2.72
2022-09-07T21:41:43.700Z,2.85
2022-09-07T21:44:16.858Z,3.45
2022-09-07T21:46:45.737Z,2.60
2022-09-07T21:49:13.998Z,3.33
2022-09-07T21:51:41.916Z,2.65
2022-09-07T21:54:10.520Z,3.15
2022-09-07T21:56:43.149Z,2.53
2022-09-07T21:59:16.560Z,3.42
2022-09-07T22:01:45.158Z,2.83
2022-09-07T22:04:13.704Z,2.75
2022-09-07T22:06:44.193Z,3.03
2022-09-07T22:09:12.380Z,2.88
2022-09-07T22:32:11.545Z,2.88
2022-09-07T22:34:40.051Z,2.83
2022-09-07T22:37:08.426Z,2.83
2022-09-07T22:39:36.613Z,2.65
2022-09-07T22:42:05.473Z,2.90
2022-09-07T22:44:33.815Z,3.53
2022-09-07T22:47:02.515Z,2.60
2022-09-07T22:49:32.153Z,3.22
2022-09-07T22:52:00.160Z,2.85
2022-09-07T22:54:28.534Z,3.10
2022-09-07T22:56:56.524Z,3.30
2022-09-07T22:59:24.979Z,3.30
2022-09-07T23:01:53.224Z,2.72
2022-09-07T23:04:21.549Z,2.67
2022-09-07T23:06:51.052Z,2.80
2022-09-07T23:09:20.834Z,3.30
2022-09-07T23:11:49.282Z,2.92
2022-09-07T23:14:23.901Z,2.70
2022-09-07T23:16:52.049Z,3.13
2022-09-07T23:19:20.888Z,3.03
2022-09-07T23:21:50.625Z,2.85
2022-09-07T23:24:20.352Z,3.13
2022-09-07T23:26:49.278Z,2.80
2022-09-07T23:29:17.578Z,3.42
2022-09-07T23:31:47.085Z,3.22
2022-09-07T23:34:15.453Z,3.08
2022-09-07T23:36:43.375Z,3.05
2022-09-07T23:39:15.435Z,3.83
2022-09-07T23:41:43.639Z,3.53
2022-09-07T23:44:11.826Z,3.40
2022-09-07T23:46:40.018Z,3.78
2022-09-07T23:49:08.073Z,3.45
2022-09-07T23:51:36.124Z,2.85
2022-09-07T23:54:04.123Z,3.20
2022-09-07T23:56:33.382Z,3.45
2022-09-07T23:59:01.557Z,3.15
